LIL1004 EDFH-LROP
Flight info
| Callsign | LIL1004 |
|---|---|
| Flight time | N/A |
| Altitude | 37000 |
| Route | ULKIG1S ULKIG Z100 RUDUS T109 HAREM T104 WLD T702 OLETU L603 EBEDA L173 TITIG DCT GOLVA DCT LAKIK DCT RISTU DCT SORDU |
| Aircraft | A320/M-SDE3FGHIRWY/LB1 |
Departure
| Time | 2026-05-05 20:26 |
|---|---|
| Airport | Frankfurt-Hahn Airport (EDFH) |
Arrival
| Time | N/A |
|---|---|
| Airport | Bucharest Henri Coandă International Airport (LROP) |
| Time | Latitude | Longitude | Altitude | Speed | Heading |
|---|---|---|---|---|---|
| 2026-05-05 20:09 | 49.94727 | 7.26891 | 1648 ft | 0 kts | 32° |
| 2026-05-05 20:16 | 49.94719 | 7.26883 | 1648 ft | 3 kts | 29° |
| 2026-05-05 20:16 | 49.94701 | 7.26870 | 1648 ft | 3 kts | 12° |
| 2026-05-05 20:16 | 49.94682 | 7.26868 | 1648 ft | 3 kts | 343° |
| 2026-05-05 20:16 | 49.94668 | 7.26880 | 1648 ft | 2 kts | 304° |
| 2026-05-05 20:17 | 49.94664 | 7.26889 | 1648 ft | 0 kts | 302° |
| 2026-05-05 20:20 | 49.94673 | 7.26867 | 1648 ft | 5 kts | 302° |
| 2026-05-05 20:20 | 49.94697 | 7.26808 | 1648 ft | 8 kts | 302° |
| 2026-05-05 20:20 | 49.94713 | 7.26768 | 1648 ft | 3 kts | 302° |
| 2026-05-05 20:21 | 49.94727 | 7.26747 | 1648 ft | 3 kts | 336° |
| 2026-05-05 20:21 | 49.94753 | 7.26763 | 1648 ft | 5 kts | 30° |
| 2026-05-05 20:21 | 49.94792 | 7.26801 | 1648 ft | 8 kts | 32° |
| 2026-05-05 20:21 | 49.94847 | 7.26855 | 1648 ft | 12 kts | 32° |
| 2026-05-05 20:22 | 49.94936 | 7.26941 | 1648 ft | 17 kts | 32° |
| 2026-05-05 20:22 | 49.95030 | 7.27034 | 1648 ft | 15 kts | 32° |
| 2026-05-05 20:22 | 49.95115 | 7.27119 | 1648 ft | 14 kts | 32° |
| 2026-05-05 20:22 | 49.95195 | 7.27197 | 1648 ft | 15 kts | 32° |
| 2026-05-05 20:23 | 49.95289 | 7.27290 | 1648 ft | 16 kts | 32° |
| 2026-05-05 20:23 | 49.95377 | 7.27376 | 1648 ft | 14 kts | 32° |
| 2026-05-05 20:23 | 49.95461 | 7.27460 | 1648 ft | 16 kts | 32° |
| 2026-05-05 20:23 | 49.95550 | 7.27545 | 1648 ft | 13 kts | 25° |
| 2026-05-05 20:24 | 49.95631 | 7.27510 | 1648 ft | 13 kts | 326° |
| 2026-05-05 20:24 | 49.95707 | 7.27430 | 1649 ft | 13 kts | 326° |
| 2026-05-05 20:24 | 49.95756 | 7.27328 | 1649 ft | 11 kts | 282° |
| 2026-05-05 20:24 | 49.95723 | 7.27230 | 1648 ft | 11 kts | 215° |
| 2026-05-05 20:25 | 49.95694 | 7.27202 | 1648 ft | 0 kts | 213° |
| 2026-05-05 20:25 | 49.95680 | 7.27188 | 1648 ft | 9 kts | 213° |
| 2026-05-05 20:25 | 49.95440 | 7.26951 | 1647 ft | 75 kts | 212° |
| 2026-05-05 20:26 | 49.94835 | 7.26355 | 1649 ft | 129 kts | 212° |
| 2026-05-05 20:26 | 49.93954 | 7.25483 | 1661 ft | 170 kts | 213° |
| 2026-05-05 20:26 | 49.92958 | 7.24479 | 2282 ft | 169 kts | 214° |
| 2026-05-05 20:26 | 49.91994 | 7.23447 | 2960 ft | 169 kts | 214° |
| 2026-05-05 20:27 | 49.91008 | 7.22415 | 3492 ft | 178 kts | 213° |
| 2026-05-05 20:27 | 49.89923 | 7.21280 | 3813 ft | 197 kts | 214° |
| 2026-05-05 20:27 | 49.88727 | 7.20039 | 4155 ft | 217 kts | 214° |
| 2026-05-05 20:27 | 49.87419 | 7.18617 | 4482 ft | 241 kts | 215° |
| 2026-05-05 20:28 | 49.86112 | 7.17013 | 5401 ft | 241 kts | 227° |
| 2026-05-05 20:28 | 49.85333 | 7.14737 | 6263 ft | 245 kts | 262° |
| 2026-05-05 20:28 | 49.85611 | 7.12181 | 7127 ft | 250 kts | 297° |
| 2026-05-05 20:28 | 49.86857 | 7.10258 | 7889 ft | 264 kts | 332° |
| 2026-05-05 20:29 | 49.88661 | 7.09638 | 8766 ft | 270 kts | 357° |
| 2026-05-05 20:29 | 49.90502 | 7.10301 | 9522 ft | 280 kts | 29° |
| 2026-05-05 20:29 | 49.91934 | 7.12348 | 10197 ft | 283 kts | 53° |
| 2026-05-05 20:29 | 49.92978 | 7.14950 | 10985 ft | 286 kts | 62° |
| 2026-05-05 20:30 | 49.93886 | 7.17713 | 11716 ft | 289 kts | 69° |
| 2026-05-05 20:30 | 49.94302 | 7.19715 | 12231 ft | 289 kts | 79° |
| 2026-05-05 20:30 | 49.94477 | 7.22835 | 12708 ft | 298 kts | 96° |
| 2026-05-05 20:30 | 49.94073 | 7.26082 | 12962 ft | 317 kts | 106° |
| 2026-05-05 20:31 | 49.93509 | 7.29517 | 13123 ft | 340 kts | 106° |
| 2026-05-05 20:31 | 49.92924 | 7.33148 | 13248 ft | 362 kts | 105° |
| 2026-05-05 20:31 | 49.92311 | 7.37057 | 13471 ft | 379 kts | 105° |
| 2026-05-05 20:31 | 49.91694 | 7.41096 | 13960 ft | 386 kts | 105° |
| 2026-05-05 20:32 | 49.91084 | 7.45134 | 14554 ft | 389 kts | 104° |
| 2026-05-05 20:32 | 49.90459 | 7.49281 | 15169 ft | 392 kts | 105° |
| 2026-05-05 20:32 | 49.89837 | 7.53368 | 15770 ft | 395 kts | 105° |
| 2026-05-05 20:32 | 49.89196 | 7.57554 | 16396 ft | 397 kts | 105° |
| 2026-05-05 20:33 | 49.88555 | 7.61718 | 17034 ft | 400 kts | 104° |
| 2026-05-05 20:33 | 49.88155 | 7.66017 | 17667 ft | 405 kts | 94° |
| 2026-05-05 20:33 | 49.88317 | 7.70363 | 18279 ft | 410 kts | 82° |
| 2026-05-05 20:33 | 49.89065 | 7.74659 | 18839 ft | 414 kts | 69° |
| 2026-05-05 20:34 | 49.90384 | 7.78672 | 19437 ft | 418 kts | 57° |
| 2026-05-05 20:34 | 49.92119 | 7.82261 | 19997 ft | 421 kts | 53° |
| 2026-05-05 20:34 | 49.93923 | 7.85866 | 20544 ft | 423 kts | 53° |
| 2026-05-05 20:34 | 49.95736 | 7.89514 | 21053 ft | 426 kts | 53° |
| 2026-05-05 20:35 | 49.97527 | 7.93138 | 21544 ft | 428 kts | 54° |
| 2026-05-05 20:35 | 49.99352 | 7.96842 | 22024 ft | 431 kts | 54° |
| 2026-05-05 20:35 | 50.01011 | 8.00681 | 22484 ft | 431 kts | 63° |
| 2026-05-05 20:35 | 50.02183 | 8.04976 | 22951 ft | 431 kts | 75° |
| 2026-05-05 20:36 | 50.02807 | 8.09513 | 23386 ft | 431 kts | 85° |
| 2026-05-05 20:36 | 50.02871 | 8.14203 | 23770 ft | 431 kts | 96° |
| 2026-05-05 20:36 | 50.02364 | 8.18772 | 24147 ft | 430 kts | 107° |
| 2026-05-05 20:36 | 50.01443 | 8.23164 | 24506 ft | 430 kts | 110° |
| 2026-05-05 20:37 | 50.00486 | 8.27556 | 24919 ft | 430 kts | 110° |
| 2026-05-05 20:37 | 49.99519 | 8.31981 | 25307 ft | 431 kts | 110° |
| 2026-05-05 20:37 | 49.98552 | 8.36402 | 25678 ft | 433 kts | 110° |
| 2026-05-05 20:37 | 49.97590 | 8.40796 | 26040 ft | 434 kts | 110° |
| 2026-05-05 20:38 | 49.96609 | 8.45271 | 26403 ft | 435 kts | 110° |
| 2026-05-05 20:38 | 49.95628 | 8.49744 | 26749 ft | 437 kts | 110° |
| 2026-05-05 20:38 | 49.94439 | 8.54098 | 27088 ft | 437 kts | 118° |
| 2026-05-05 20:38 | 49.92951 | 8.58171 | 27416 ft | 438 kts | 121° |
| 2026-05-05 20:39 | 49.91426 | 8.62295 | 27859 ft | 437 kts | 120° |
| 2026-05-05 20:39 | 49.89935 | 8.66342 | 28356 ft | 434 kts | 120° |
| 2026-05-05 20:39 | 49.88428 | 8.70437 | 28859 ft | 432 kts | 120° |
| 2026-05-05 20:39 | 49.86952 | 8.74435 | 29380 ft | 431 kts | 120° |
| 2026-05-05 20:40 | 49.85457 | 8.78474 | 29870 ft | 430 kts | 121° |
| 2026-05-05 20:40 | 49.83980 | 8.82454 | 30230 ft | 430 kts | 121° |
| 2026-05-05 20:40 | 49.82488 | 8.86475 | 30621 ft | 429 kts | 121° |
| 2026-05-05 20:40 | 49.80991 | 8.90503 | 31032 ft | 429 kts | 121° |
| 2026-05-05 20:41 | 49.79507 | 8.94482 | 31451 ft | 428 kts | 121° |
| 2026-05-05 20:41 | 49.78015 | 8.98482 | 31878 ft | 427 kts | 121° |
| 2026-05-05 20:41 | 49.76543 | 9.02428 | 32302 ft | 426 kts | 121° |
| 2026-05-05 20:41 | 49.75061 | 9.06392 | 32716 ft | 425 kts | 122° |
| 2026-05-05 20:42 | 49.73589 | 9.10309 | 33094 ft | 425 kts | 122° |
| 2026-05-05 20:42 | 49.72094 | 9.14279 | 33516 ft | 424 kts | 122° |
| 2026-05-05 20:42 | 49.70609 | 9.18226 | 33924 ft | 423 kts | 122° |
| 2026-05-05 20:42 | 49.69141 | 9.22123 | 34251 ft | 424 kts | 122° |
| 2026-05-05 20:43 | 49.67649 | 9.26075 | 34559 ft | 424 kts | 122° |
| 2026-05-05 20:43 | 49.66164 | 9.29998 | 34834 ft | 425 kts | 122° |
| 2026-05-05 20:43 | 49.64676 | 9.33921 | 35101 ft | 426 kts | 123° |
| 2026-05-05 20:43 | 49.63178 | 9.37873 | 35360 ft | 427 kts | 123° |
| 2026-05-05 20:44 | 49.61574 | 9.41761 | 35614 ft | 426 kts | 129° |
| 2026-05-05 20:44 | 49.59692 | 9.45226 | 35868 ft | 426 kts | 133° |
| 2026-05-05 20:44 | 49.57734 | 9.48673 | 36096 ft | 427 kts | 134° |
| 2026-05-05 20:44 | 49.55770 | 9.52122 | 36310 ft | 429 kts | 134° |
| 2026-05-05 20:45 | 49.51823 | 9.59031 | 36758 ft | 431 kts | 134° |
| 2026-05-05 20:45 | 49.47825 | 9.66008 | 36831 ft | 438 kts | 134° |
| 2026-05-05 20:46 | 49.43788 | 9.73035 | 36839 ft | 439 kts | 134° |
| 2026-05-05 20:46 | 49.39741 | 9.80063 | 36837 ft | 439 kts | 134° |
| 2026-05-05 20:47 | 49.35686 | 9.87091 | 36836 ft | 439 kts | 135° |
| 2026-05-05 20:47 | 49.31627 | 9.94105 | 36842 ft | 440 kts | 135° |
| 2026-05-05 20:48 | 49.27553 | 10.01104 | 36840 ft | 440 kts | 135° |
| 2026-05-05 20:48 | 49.23472 | 10.08102 | 36843 ft | 441 kts | 135° |
| 2026-05-05 20:49 | 49.19381 | 10.15095 | 36869 ft | 441 kts | 135° |
| 2026-05-05 20:49 | 49.15286 | 10.22085 | 36846 ft | 441 kts | 135° |
| 2026-05-05 20:50 | 49.11145 | 10.29011 | 36868 ft | 441 kts | 137° |
| 2026-05-05 20:50 | 49.06918 | 10.35776 | 36877 ft | 441 kts | 137° |
| 2026-05-05 20:51 | 49.02688 | 10.42482 | 36875 ft | 441 kts | 137° |
| 2026-05-05 20:51 | 48.98446 | 10.49238 | 36886 ft | 441 kts | 137° |
| 2026-05-05 20:52 | 48.94206 | 10.56001 | 36886 ft | 442 kts | 137° |
| 2026-05-05 20:52 | 48.89958 | 10.62764 | 36882 ft | 442 kts | 138° |
| 2026-05-05 20:53 | 48.85701 | 10.69518 | 36884 ft | 443 kts | 138° |
| 2026-05-05 20:53 | 48.81436 | 10.76264 | 36880 ft | 443 kts | 138° |
| 2026-05-05 20:54 | 48.77167 | 10.82989 | 36878 ft | 443 kts | 138° |
| 2026-05-05 20:54 | 48.72877 | 10.89703 | 36866 ft | 443 kts | 139° |
| 2026-05-05 20:55 | 48.68583 | 10.96406 | 36851 ft | 444 kts | 139° |
| 2026-05-05 20:55 | 48.64281 | 11.03112 | 36861 ft | 444 kts | 139° |
| 2026-05-05 20:56 | 48.59999 | 11.09839 | 36871 ft | 446 kts | 134° |
| 2026-05-05 20:56 | 48.56781 | 11.17931 | 36874 ft | 457 kts | 115° |
| 2026-05-05 20:57 | 48.54653 | 11.27006 | 36873 ft | 459 kts | 114° |
| 2026-05-05 20:57 | 48.52512 | 11.36082 | 36847 ft | 459 kts | 114° |
| 2026-05-05 20:58 | 48.50366 | 11.45157 | 36861 ft | 460 kts | 114° |
| 2026-05-05 20:58 | 48.48201 | 11.54245 | 36870 ft | 461 kts | 114° |
| 2026-05-05 20:59 | 48.45324 | 11.62722 | 36880 ft | 450 kts | 131° |
| 2026-05-05 20:59 | 48.41289 | 11.69832 | 36893 ft | 446 kts | 136° |
| 2026-05-05 21:00 | 48.37183 | 11.76842 | 36895 ft | 446 kts | 136° |
| 2026-05-05 21:00 | 48.33095 | 11.83809 | 36902 ft | 446 kts | 136° |